Zhong Shan Men — 3FLE6 — position and weather

sailwx.info

Track history (hours):
 
Tides and Currents Weather Stations Pressure Air Temp Water Temp Dewpoint Dewpoint Depression Visibility Wind Speed Wind Dir Waves Ship Positions

Zhong Shan Men

Last reported at 2017-Nov-12 14:01 UTC. Time now 2017-Nov-22 01:59 UTC.
Position N 31°21' E 123°06'.
Warning: this ship's position is 9 days out of date.

Length 189 m; draft 13 m.

Type: Cargo ship. MMSI: 351339000.

Date/timePositionNaut miles runAvg speedWind from/ knotsBaromVisibWave heightAir tempDewpointWater temp
2017-Nov-12 14:01N 31°21' E 123°06'311.7
2017-Nov-12 13:44N 31°17' E 123°05'311.8
2017-Nov-12 13:27N 31°14' E 123°06'  
2017-Nov-03 22:21N 01°18' E 104°02'2 4.5
2017-Nov-03 21:59N 01°17' E 104°00'0 0.2
2017-Nov-03 21:26N 01°17' E 104°00'0 0.0
2017-Nov-03 18:23N 01°17' E 104°00'0 0.0
2017-Nov-03 14:08N 01°17' E 103°60'0 0.0
2017-Nov-03 13:44N 01°17' E 103°60'0 0.0
2017-Nov-03 13:29N 01°17' E 103°60'0 0.0
2017-Nov-03 12:23N 01°17' E 103°60'0 0.1
2017-Nov-03 11:35N 01°17' E 103°60'0 0.3
2017-Nov-03 11:23N 01°17' E 103°60'1 1.1
2017-Nov-03 10:47N 01°17' E 103°59'2 5.6
2017-Nov-03 10:30N 01°16' E 103°58'3 5.0
2017-Nov-03 10:00N 01°14' E 103°57'5 9.3
2017-Nov-03 09:30N 01°12' E 103°53'4 7.3
2017-Nov-03 09:00N 01°10' E 103°49'4 7.6
2017-Nov-03 08:30N 01°08' E 103°46'510.3
2017-Nov-03 07:59N 01°04' E 103°42'510.1
2017-Nov-03 07:30N 01°03' E 103°38'611.7
2017-Nov-03 06:59N 01°06' E 103°33'612.0
2017-Nov-03 06:30N 01°09' E 103°27'  
Track history (hours):
 
Tides and Currents Weather Stations Pressure Air Temp Water Temp Dewpoint Dewpoint Depression Visibility Wind Speed Wind Dir Waves Ship Positions

Zhong Shan Men

Last reported at 2017-Nov-12 14:01 UTC. Time now 2017-Nov-22 01:59 UTC.
Position N 31°21' E 123°06'.
Warning: this ship's position is 9 days out of date.

Length 189 m; draft 13 m.

Type: Cargo ship. MMSI: 351339000.

Date/timePositionNaut miles runAvg speedWind from/ knotsBaromVisibWave heightAir tempDewpointWater temp
2017-Nov-12 14:01N 31°21' E 123°06'311.7
2017-Nov-12 13:44N 31°17' E 123°05'311.8
2017-Nov-12 13:27N 31°14' E 123°06'  
2017-Nov-03 22:21N 01°18' E 104°02'2 4.5
2017-Nov-03 21:59N 01°17' E 104°00'0 0.2
2017-Nov-03 21:26N 01°17' E 104°00'0 0.0
2017-Nov-03 18:23N 01°17' E 104°00'0 0.0
2017-Nov-03 14:08N 01°17' E 103°60'0 0.0
2017-Nov-03 13:44N 01°17' E 103°60'0 0.0
2017-Nov-03 13:29N 01°17' E 103°60'0 0.0
2017-Nov-03 12:23N 01°17' E 103°60'0 0.1
2017-Nov-03 11:35N 01°17' E 103°60'0 0.3
2017-Nov-03 11:23N 01°17' E 103°60'1 1.1
2017-Nov-03 10:47N 01°17' E 103°59'2 5.6
2017-Nov-03 10:30N 01°16' E 103°58'3 5.0
2017-Nov-03 10:00N 01°14' E 103°57'5 9.3
2017-Nov-03 09:30N 01°12' E 103°53'4 7.3
2017-Nov-03 09:00N 01°10' E 103°49'4 7.6
2017-Nov-03 08:30N 01°08' E 103°46'510.3
2017-Nov-03 07:59N 01°04' E 103°42'510.1
2017-Nov-03 07:30N 01°03' E 103°38'611.7
2017-Nov-03 06:59N 01°06' E 103°33'612.0
2017-Nov-03 06:30N 01°09' E 103°27'  

Dump ship's entire track history